Time;durP1;ratioP1;P1;durP2;ratioP2;P2;SDS_P1;SDS_P2;PMS_P1;PMS_P2;Temp;Humidity;BMP_temperature;BMP_pressure;BME280_temperature;BME280_humidity;BME280_pressure;Samples;Min_cycle;Max_cycle;Signal;HPM_P1;HPM_P2
2021/04/03 00:01:06;;;;;;;8.10;5.70;;;7.50;61.20;;;;;;5081286;28;20106;-63
2021/04/03 00:03:34;;;;;;;8.52;6.28;;;7.50;61.30;;;;;;5080286;28;20574;-62
2021/04/03 00:06:05;;;;;;;8.43;6.35;;;7.50;61.20;;;;;;5082128;28;20036;-62
2021/04/03 00:08:36;;;;;;;7.15;6.03;;;7.50;61.20;;;;;;5077310;28;20500;-62
2021/04/03 00:11:07;;;;;;;9.02;5.90;;;7.50;61.00;;;;;;5078946;28;20590;-63
2021/04/03 00:13:39;;;;;;;7.13;5.78;;;7.50;61.20;;;;;;5069881;28;20528;-62
2021/04/03 00:16:12;;;;;;;7.97;5.80;;;7.40;61.30;;;;;;5080237;28;20032;-63
2021/04/03 00:18:38;;;;;;;8.00;5.93;;;7.40;61.10;;;;;;5080351;28;20325;-61
2021/04/03 00:21:07;;;;;;;9.07;6.63;;;7.30;61.00;;;;;;5068375;28;20691;-62
2021/04/03 00:23:34;;;;;;;8.48;6.63;;;7.20;61.30;;;;;;5065258;28;20032;-63
2021/04/03 00:26:05;;;;;;;9.88;5.88;;;7.20;61.20;;;;;;5077521;28;20035;-63
2021/04/03 00:28:33;;;;;;;10.35;5.75;;;7.00;61.20;;;;;;5073401;28;20077;-63
2021/04/03 00:30:58;;;;;;;8.55;5.72;;;6.90;61.20;;;;;;5082586;28;20032;-63
2021/04/03 00:33:24;;;;;;;10.77;6.40;;;6.80;61.30;;;;;;5079459;28;20671;-63
2021/04/03 00:35:50;;;;;;;8.05;5.90;;;6.70;61.50;;;;;;5081972;28;20119;-63
2021/04/03 00:38:18;;;;;;;8.63;6.20;;;6.60;61.80;;;;;;5080024;28;20074;-63
2021/04/03 00:40:50;;;;;;;8.60;6.40;;;6.60;61.80;;;;;;5084128;28;20087;-63
2021/04/03 00:43:22;;;;;;;10.43;6.03;;;6.50;62.00;;;;;;5080982;28;20039;-62
2021/04/03 00:45:53;;;;;;;8.32;5.63;;;6.40;62.20;;;;;;5080230;28;20037;-62
2021/04/03 00:48:21;;;;;;;8.55;6.30;;;6.40;63.00;;;;;;5077615;28;20040;-62
2021/04/03 00:50:50;;;;;;;8.25;5.72;;;6.30;62.20;;;;;;5084987;28;20496;-62
2021/04/03 00:53:20;;;;;;;8.07;5.65;;;6.30;62.40;;;;;;5085300;28;20389;-62
2021/04/03 00:55:47;;;;;;;9.45;6.00;;;6.20;62.50;;;;;;5086695;28;20040;-62
2021/04/03 00:58:15;;;;;;;8.35;6.03;;;6.20;62.50;;;;;;5082588;28;20143;-62
2021/04/03 01:00:48;;;;;;;8.13;5.95;;;6.20;62.60;;;;;;5081521;28;20492;-62
2021/04/03 01:03:15;;;;;;;9.13;6.57;;;6.20;62.80;;;;;;5075024;28;20404;-63
2021/04/03 01:05:47;;;;;;;9.48;6.75;;;6.10;62.60;;;;;;5081852;28;20038;-62
2021/04/03 01:08:13;;;;;;;9.82;6.50;;;6.10;62.70;;;;;;5082082;28;20519;-62
2021/04/03 01:10:42;;;;;;;8.13;6.05;;;6.10;62.70;;;;;;5078676;28;20063;-62
2021/04/03 01:13:19;;;;;;;8.98;6.03;;;6.10;62.80;;;;;;5082071;28;20035;-62
2021/04/03 01:16:07;;;;;;;9.65;6.15;;;6.00;62.80;;;;;;5083563;28;20051;-62
2021/04/03 01:19:05;;;;;;;8.43;6.20;;;6.10;63.40;;;;;;5077513;28;20555;-62
2021/04/03 01:22:09;;;;;;;8.45;5.45;;;6.10;63.30;;;;;;5084044;28;20056;-62
2021/04/03 01:24:56;;;;;;;8.30;5.28;;;6.20;63.30;;;;;;5086167;28;20032;-62
2021/04/03 01:27:25;;;;;;;8.88;5.85;;;6.20;62.80;;;;;;5085061;28;20039;-63
2021/04/03 01:30:08;;;;;;;9.00;5.60;;;6.20;62.60;;;;;;5083507;28;20610;-63
2021/04/03 01:32:43;;;;;;;11.90;5.88;;;6.30;62.70;;;;;;5081239;28;20028;-62
2021/04/03 01:35:16;;;;;;;11.57;5.80;;;6.30;63.20;;;;;;5084483;28;20031;-63
2021/04/03 01:37:47;;;;;;;10.25;6.50;;;6.30;63.20;;;;;;5082197;28;20527;-63
2021/04/03 01:40:18;;;;;;;9.85;6.53;;;6.30;63.10;;;;;;5075930;28;20395;-62
2021/04/03 01:42:49;;;;;;;9.75;6.00;;;6.30;62.90;;;;;;5083179;28;20032;-63
2021/04/03 01:45:23;;;;;;;10.43;6.00;;;6.30;63.00;;;;;;5084808;28;20032;-62
2021/04/03 01:47:53;;;;;;;8.38;5.93;;;6.30;63.00;;;;;;5077570;28;20036;-63
2021/04/03 01:50:24;;;;;;;8.50;5.93;;;6.40;63.00;;;;;;5080071;28;20036;-63
2021/04/03 01:52:55;;;;;;;11.50;6.13;;;6.40;63.00;;;;;;5078510;28;20035;-62
2021/04/03 01:55:27;;;;;;;9.10;5.75;;;6.40;63.00;;;;;;5080982;28;20032;-63
2021/04/03 01:58:01;;;;;;;11.40;6.43;;;6.40;63.30;;;;;;5101743;28;20126;-63
2021/04/03 02:00:29;;;;;;;9.77;5.82;;;6.40;63.30;;;;;;5082176;28;20033;-63
2021/04/03 02:02:56;;;;;;;11.25;6.00;;;6.40;63.20;;;;;;5081428;28;20034;-62
2021/04/03 02:05:22;;;;;;;12.45;6.72;;;6.50;63.10;;;;;;5081449;28;20039;-62
2021/04/03 02:07:50;;;;;;;9.48;6.13;;;6.50;63.20;;;;;;5083390;28;20651;-63
2021/04/03 02:10:30;;;;;;;10.35;6.72;;;6.50;63.30;;;;;;5085319;28;20032;-63
2021/04/03 02:12:58;;;;;;;10.07;6.88;;;6.50;63.50;;;;;;5077256;28;20033;-61
2021/04/03 02:15:25;;;;;;;11.75;6.50;;;6.50;63.20;;;;;;5075964;28;20042;-63
2021/04/03 02:17:55;;;;;;;8.73;5.95;;;6.50;63.20;;;;;;5080396;28;20024;-63
2021/04/03 02:20:23;;;;;;;10.80;6.18;;;6.50;63.10;;;;;;5081866;28;20081;-64
2021/04/03 02:22:51;;;;;;;11.52;6.45;;;6.50;63.00;;;;;;5086771;28;20500;-62
2021/04/03 02:25:21;;;;;;;11.55;6.13;;;6.50;63.20;;;;;;5080723;28;20759;-63
2021/04/03 02:27:47;;;;;;;9.48;6.47;;;6.60;63.30;;;;;;5087843;28;20039;-63
2021/04/03 02:30:22;;;;;;;11.23;6.13;;;6.60;63.30;;;;;;5076922;28;20032;-62
2021/04/03 02:32:57;;;;;;;9.27;6.65;;;6.60;63.20;;;;;;5084976;28;20028;-63
2021/04/03 02:35:26;;;;;;;11.38;6.13;;;6.60;63.50;;;;;;5082783;28;20124;-63
2021/04/03 02:37:55;;;;;;;8.57;6.28;;;6.60;63.10;;;;;;5087532;28;20051;-63
2021/04/03 02:40:27;;;;;;;9.43;6.13;;;6.60;63.00;;;;;;5083777;28;20039;-63
2021/04/03 02:43:31;;;;;;;10.90;6.47;;;6.60;63.00;;;;;;5087044;28;20412;-63
2021/04/03 02:46:14;;;;;;;10.93;5.63;;;6.60;63.30;;;;;;5087572;28;20040;-62
2021/04/03 02:48:47;;;;;;;10.73;6.35;;;6.70;63.10;;;;;;5082166;28;20565;-63
2021/04/03 02:51:20;;;;;;;10.60;6.35;;;6.70;63.00;;;;;;5083134;28;20038;-63
2021/04/03 02:53:49;;;;;;;10.23;6.35;;;6.70;63.10;;;;;;5082525;28;20086;-63
2021/04/03 02:56:17;;;;;;;9.70;6.13;;;6.80;63.00;;;;;;5083391;28;20321;-63
2021/04/03 02:58:45;;;;;;;13.35;6.15;;;6.80;62.70;;;;;;5086257;28;20547;-62
2021/04/03 03:01:12;;;;;;;8.93;5.45;;;6.80;62.60;;;;;;5080860;28;20047;-63
2021/04/03 03:03:39;;;;;;;8.60;5.97;;;6.90;62.60;;;;;;5086287;28;20032;-63
2021/04/03 03:06:05;;;;;;;10.82;5.22;;;6.80;62.40;;;;;;5082251;28;20040;-64
2021/04/03 03:08:34;;;;;;;9.82;5.45;;;6.90;62.20;;;;;;5083452;28;20037;-63
2021/04/03 03:11:03;;;;;;;11.32;5.93;;;6.90;62.10;;;;;;5076031;28;20129;-62
2021/04/03 03:13:34;;;;;;;9.38;5.63;;;6.90;62.00;;;;;;5082820;28;20040;-62
2021/04/03 03:16:03;;;;;;;9.68;5.40;;;6.90;61.70;;;;;;5085467;28;20024;-63
2021/04/03 03:18:33;;;;;;;8.85;5.70;;;6.90;61.70;;;;;;5082360;28;20024;-63
2021/04/03 03:21:00;;;;;;;8.95;5.35;;;6.90;61.60;;;;;;5081230;28;20028;-62
2021/04/03 03:23:30;;;;;;;11.20;5.38;;;7.00;61.50;;;;;;5084039;28;20051;-63
2021/04/03 03:25:59;;;;;;;10.02;5.53;;;7.00;61.30;;;;;;5075733;28;20074;-63
2021/04/03 03:28:29;;;;;;;10.40;5.45;;;7.00;61.00;;;;;;5085645;28;20063;-63
2021/04/03 03:30:58;;;;;;;11.23;5.47;;;7.00;61.00;;;;;;5081204;28;20111;-63
2021/04/03 03:33:26;;;;;;;10.50;5.15;;;6.90;61.20;;;;;;5084620;28;20639;-62
2021/04/03 03:35:56;;;;;;;13.50;5.25;;;6.90;61.10;;;;;;5085057;28;20043;-63
2021/04/03 03:38:24;;;;;;;10.52;5.53;;;6.90;61.00;;;;;;5081980;28;20077;-63
2021/04/03 03:40:57;;;;;;;11.10;6.03;;;6.90;60.90;;;;;;5085553;28;20028;-62
2021/04/03 03:43:25;;;;;;;10.63;5.32;;;6.90;60.90;;;;;;5083900;28;20111;-63
2021/04/03 03:45:58;;;;;;;9.18;5.70;;;6.90;61.10;;;;;;5087211;28;20039;-63
2021/04/03 03:48:28;;;;;;;11.30;5.75;;;6.80;61.00;;;;;;5079367;28;20036;-63
2021/04/03 03:50:56;;;;;;;11.18;5.63;;;6.80;60.90;;;;;;5080213;28;20039;-62
2021/04/03 03:53:26;;;;;;;8.93;5.38;;;6.80;60.70;;;;;;5082547;28;20028;-62
2021/04/03 03:55:53;;;;;;;10.75;5.57;;;6.80;60.80;;;;;;5080292;28;20543;-62
2021/04/03 03:58:22;;;;;;;10.82;5.80;;;6.70;60.60;;;;;;5084363;28;20036;-63
2021/04/03 04:00:51;;;;;;;12.00;5.28;;;6.60;60.40;;;;;;5081248;28;20028;-63
2021/04/03 04:03:16;;;;;;;7.72;5.15;;;6.60;60.40;;;;;;5095342;28;20028;-62
2021/04/03 04:05:44;;;;;;;13.63;5.65;;;6.50;60.40;;;;;;5087748;28;20040;-62
2021/04/03 04:08:13;;;;;;;10.95;5.03;;;6.40;60.50;;;;;;5086031;28;20056;-63
2021/04/03 04:10:41;;;;;;;8.73;5.30;;;6.30;60.60;;;;;;5077898;28;20407;-63
2021/04/03 04:13:09;;;;;;;10.73;5.15;;;6.20;60.60;;;;;;5082529;28;20036;-62
2021/04/03 04:15:38;;;;;;;11.27;5.60;;;6.20;60.60;;;;;;5081206;28;20039;-61
2021/04/03 04:18:05;;;;;;;9.40;5.57;;;6.10;60.70;;;;;;5082793;28;20036;-63
2021/04/03 04:20:33;;;;;;;10.95;5.28;;;6.00;60.60;;;;;;5079931;28;20062;-63
2021/04/03 04:23:05;;;;;;;12.90;5.97;;;5.90;61.10;;;;;;5098788;28;20024;-62
2021/04/03 04:25:30;;;;;;;13.23;5.60;;;5.80;60.70;;;;;;5085571;28;20036;-63
2021/04/03 04:27:59;;;;;;;9.55;5.53;;;5.70;60.70;;;;;;5080303;28;20088;-62
2021/04/03 04:30:27;;;;;;;8.30;5.18;;;5.60;60.90;;;;;;5075765;28;20028;-63
2021/04/03 04:32:55;;;;;;;10.00;5.32;;;5.60;61.20;;;;;;5081961;28;20044;-63
2021/04/03 04:35:23;;;;;;;7.93;5.20;;;5.50;61.40;;;;;;5081349;28;20028;-63
2021/04/03 04:37:49;;;;;;;7.70;5.05;;;5.50;61.50;;;;;;5080913;28;20493;-62
2021/04/03 04:40:15;;;;;;;13.90;5.72;;;5.40;61.50;;;;;;5079314;28;20035;-62
2021/04/03 04:42:49;;;;;;;13.93;5.85;;;5.40;61.60;;;;;;5077382;28;20043;-63
2021/04/03 04:45:15;;;;;;;9.95;5.35;;;5.40;61.70;;;;;;5083559;28;20028;-62
2021/04/03 04:47:45;;;;;;;8.63;5.10;;;5.30;61.50;;;;;;5081687;28;20036;-62
2021/04/03 04:50:11;;;;;;;12.55;5.60;;;5.30;61.60;;;;;;5077992;28;20032;-62
2021/04/03 04:52:39;;;;;;;11.30;6.03;;;5.20;61.60;;;;;;5077480;28;20116;-63
2021/04/03 04:55:08;;;;;;;13.10;5.45;;;5.20;61.70;;;;;;5079935;28;20042;-62
2021/04/03 04:57:33;;;;;;;8.55;5.30;;;5.20;61.80;;;;;;5081793;28;20028;-62
2021/04/03 05:00:01;;;;;;;9.48;5.07;;;5.20;62.00;;;;;;5083699;28;20095;-62
2021/04/03 05:02:32;;;;;;;8.73;5.30;;;5.20;62.30;;;;;;5084323;28;20032;-63
2021/04/03 05:05:00;;;;;;;13.80;5.55;;;5.20;62.40;;;;;;5094312;28;20028;-65
2021/04/03 05:07:30;;;;;;;8.88;5.57;;;5.20;62.30;;;;;;5081089;28;20032;-61
2021/04/03 05:09:55;;;;;;;10.82;5.03;;;5.20;62.30;;;;;;5077401;28;20407;-65
2021/04/03 05:12:25;;;;;;;9.40;5.20;;;5.20;62.10;;;;;;5074307;28;20061;-65
2021/04/03 05:14:53;;;;;;;9.07;5.10;;;5.20;62.10;;;;;;5074845;28;20549;-65
2021/04/03 05:17:21;;;;;;;11.25;5.65;;;5.20;62.20;;;;;;5074432;28;20036;-64
2021/04/03 05:19:49;;;;;;;10.32;5.28;;;5.20;62.20;;;;;;5084285;28;20040;-64
2021/04/03 05:22:15;;;;;;;14.57;6.93;;;5.20;62.20;;;;;;5083063;28;20056;-64
2021/04/03 05:24:43;;;;;;;14.52;7.10;;;5.20;62.10;;;;;;5082561;28;20519;-64
2021/04/03 05:27:11;;;;;;;12.75;7.55;;;5.10;62.10;;;;;;5084090;28;20088;-62
2021/04/03 05:29:39;;;;;;;12.13;6.38;;;5.10;62.10;;;;;;5076800;28;20041;-62
2021/04/03 05:32:07;;;;;;;9.18;5.47;;;5.10;62.10;;;;;;5080883;28;20039;-63
2021/04/03 05:34:32;;;;;;;9.65;6.40;;;5.10;62.20;;;;;;5072594;28;20047;-62
2021/04/03 05:37:03;;;;;;;8.82;5.72;;;5.10;62.10;;;;;;5077264;28;20043;-62
2021/04/03 05:39:29;;;;;;;8.55;5.63;;;5.10;62.20;;;;;;5073696;28;20551;-63
2021/04/03 05:41:54;;;;;;;10.25;5.43;;;5.10;62.10;;;;;;5073624;28;20119;-62
2021/04/03 05:44:24;;;;;;;11.10;5.43;;;5.10;62.10;;;;;;5072435;28;20040;-62
2021/04/03 05:46:55;;;;;;;10.63;6.28;;;5.10;62.30;;;;;;5077172;28;20028;-62
2021/04/03 05:49:22;;;;;;;14.18;7.03;;;5.20;62.40;;;;;;5084847;28;20048;-62
2021/04/03 05:51:53;;;;;;;8.55;6.28;;;5.20;62.30;;;;;;5085880;28;20036;-62
2021/04/03 05:54:21;;;;;;;9.98;5.82;;;5.20;62.50;;;;;;5084984;28;20060;-63
2021/04/03 05:56:47;;;;;;;11.25;5.57;;;5.20;62.50;;;;;;5085488;28;20029;-63
2021/04/03 05:59:15;;;;;;;9.73;5.70;;;5.30;62.50;;;;;;5086894;28;20396;-63
2021/04/03 06:01:41;;;;;;;10.10;5.32;;;5.30;62.50;;;;;;5080372;28;20028;-61
2021/04/03 06:04:11;;;;;;;9.65;6.32;;;5.40;62.60;;;;;;5080267;28;20103;-63
2021/04/03 06:06:38;;;;;;;10.57;7.05;;;5.40;62.80;;;;;;5082800;28;20036;-63
2021/04/03 06:09:07;;;;;;;11.32;6.50;;;5.50;62.90;;;;;;5076498;28;20039;-63
2021/04/03 06:11:48;;;;;;;9.63;5.03;;;5.50;62.90;;;;;;5076887;28;20095;-63
2021/04/03 06:14:20;;;;;;;14.80;4.95;;;5.50;63.80;;;;;;5077195;28;20032;-63
2021/04/03 06:16:50;;;;;;;8.55;5.20;;;5.60;62.80;;;;;;5076187;28;20642;-62
2021/04/03 06:19:19;;;;;;;11.35;5.20;;;5.60;62.80;;;;;;5076771;28;20037;-63
2021/04/03 06:21:57;;;;;;;11.80;5.68;;;5.60;62.80;;;;;;5081711;28;20024;-63
2021/04/03 06:24:26;;;;;;;13.85;7.15;;;5.70;62.70;;;;;;5079906;28;20103;-63
2021/04/03 06:27:06;;;;;;;14.27;5.72;;;5.70;62.50;;;;;;5075743;28;20060;-62
2021/04/03 06:29:42;;;;;;;10.82;6.30;;;5.70;62.80;;;;;;5076412;28;20033;-62
2021/04/03 06:32:27;;;;;;;9.27;5.70;;;5.70;62.80;;;;;;5076737;28;20109;-63
2021/04/03 06:34:54;;;;;;;8.02;5.30;;;5.70;62.60;;;;;;5082859;28;20543;-62
2021/04/03 06:37:37;;;;;;;9.27;5.63;;;5.80;62.60;;;;;;5081768;28;20424;-62
2021/04/03 06:40:09;;;;;;;9.02;5.38;;;5.80;62.50;;;;;;5083298;28;20097;-62
2021/04/03 06:42:51;;;;;;;8.82;5.10;;;5.90;62.10;;;;;;5054714;28;20160;-62
2021/04/03 06:45:26;;;;;;;6.50;5.00;;;5.90;61.90;;;;;;5058522;28;20056;-63
2021/04/03 06:48:02;;;;;;;8.18;5.10;;;6.00;62.00;;;;;;5064330;28;20036;-65
2021/04/03 06:50:34;;;;;;;10.23;5.30;;;6.00;61.90;;;;;;5062199;28;20047;-65
2021/04/03 06:53:09;;;;;;;10.38;5.25;;;6.10;61.90;;;;;;5066819;28;20115;-65
2021/04/03 06:55:38;;;;;;;11.20;5.47;;;6.10;61.60;;;;;;5061911;28;20454;-65
2021/04/03 06:58:09;;;;;;;8.10;4.82;;;6.20;61.60;;;;;;5062310;28;20107;-64
2021/04/03 07:00:36;;;;;;;9.80;4.95;;;6.20;61.60;;;;;;5061360;28;20396;-64
2021/04/03 07:03:23;;;;;;;12.27;5.03;;;6.30;61.40;;;;;;5063061;28;20039;-64
2021/04/03 07:05:54;;;;;;;8.57;4.90;;;6.20;61.10;;;;;;5061614;28;20036;-64
2021/04/03 07:08:24;;;;;;;5.82;4.30;;;6.30;61.20;;;;;;5060409;28;20028;-65
2021/04/03 07:10:55;;;;;;;10.77;5.00;;;6.30;61.30;;;;;;5057935;28;20040;-64
2021/04/03 07:13:21;;;;;;;10.27;4.55;;;6.40;60.80;;;;;;5064209;28;21375;-64
2021/04/03 07:15:54;;;;;;;9.57;4.70;;;6.50;61.00;;;;;;5062690;28;20639;-65
2021/04/03 07:18:22;;;;;;;12.65;4.75;;;6.50;61.10;;;;;;5063808;28;20040;-63
2021/04/03 07:20:52;;;;;;;9.48;4.65;;;6.60;60.80;;;;;;5058836;28;20508;-63
2021/04/03 07:23:23;;;;;;;10.35;4.60;;;6.60;60.70;;;;;;5061279;28;20036;-65
2021/04/03 07:25:54;;;;;;;8.25;4.70;;;6.70;60.50;;;;;;5062457;28;20040;-62
2021/04/03 07:28:20;;;;;;;8.65;4.45;;;6.70;59.80;;;;;;5070544;28;20893;-63
2021/04/03 07:30:50;;;;;;;10.40;4.28;;;6.80;59.70;;;;;;5063276;28;20036;-62
2021/04/03 07:33:21;;;;;;;11.32;4.35;;;6.70;59.90;;;;;;5063386;28;20040;-62
2021/04/03 07:35:50;;;;;;;8.98;4.45;;;6.80;60.20;;;;;;5065719;28;20028;-62
2021/04/03 07:38:19;;;;;;;10.15;4.30;;;6.80;60.10;;;;;;5062588;28;20056;-63
2021/04/03 07:40:49;;;;;;;11.90;4.30;;;6.90;59.80;;;;;;5060756;28;20389;-62
2021/04/03 07:43:33;;;;;;;7.85;4.45;;;6.90;59.70;;;;;;5067315;28;20590;-63
2021/04/03 07:46:06;;;;;;;8.25;4.50;;;7.00;59.50;;;;;;5074692;28;20044;-62
2021/04/03 07:48:37;;;;;;;6.30;4.53;;;7.00;59.60;;;;;;5074099;28;20063;-64
2021/04/03 07:51:28;;;;;;;8.98;4.55;;;7.10;59.50;;;;;;5068141;28;20993;-63
2021/04/03 07:53:58;;;;;;;8.57;4.20;;;7.10;59.50;;;;;;5057248;28;20438;-63
2021/04/03 07:56:50;;;;;;;5.63;3.97;;;7.20;59.60;;;;;;5065500;28;20032;-64
2021/04/03 07:59:17;;;;;;;6.70;3.92;;;7.20;59.40;;;;;;5065750;28;20037;-63
2021/04/03 08:01:47;;;;;;;11.15;4.07;;;7.30;59.50;;;;;;5067806;28;20024;-63
2021/04/03 08:04:15;;;;;;;9.10;4.60;;;7.30;59.30;;;;;;5067787;28;20039;-63
2021/04/03 08:06:44;;;;;;;6.18;4.07;;;7.40;59.20;;;;;;5079842;28;20040;-63
2021/04/03 08:09:15;;;;;;;6.35;3.83;;;7.40;59.10;;;;;;5069781;28;20054;-63
2021/04/03 08:11:50;;;;;;;8.18;4.25;;;7.50;59.00;;;;;;5062179;28;20041;-63
2021/04/03 08:14:16;;;;;;;;;;;7.60;58.70;;;;;;5067533;28;20040;-63
2021/04/03 08:16:47;;;;;;;6.28;4.18;;;7.60;58.40;;;;;;5065710;28;19920;-63
2021/04/03 08:19:14;;;;;;;8.50;4.45;;;7.70;58.30;;;;;;5064029;28;20182;-63
2021/04/03 08:21:46;;;;;;;4.88;3.72;;;7.70;58.40;;;;;;5064561;28;20040;-63
2021/04/03 08:24:14;;;;;;;6.88;4.50;;;7.70;58.40;;;;;;5067949;28;20037;-63
2021/04/03 08:26:42;;;;;;;5.72;3.80;;;7.80;58.40;;;;;;5065872;28;20060;-63
2021/04/03 08:29:19;;;;;;;5.20;3.65;;;7.90;58.40;;;;;;5065746;28;20154;-63
2021/04/03 08:31:51;;;;;;;4.97;3.70;;;7.90;58.10;;;;;;5065982;28;20033;-63
2021/04/03 08:34:20;;;;;;;7.53;4.55;;;8.00;58.00;;;;;;5066148;28;20074;-63
2021/04/03 08:36:46;;;;;;;10.15;4.43;;;8.10;57.80;;;;;;5068339;28;20028;-63
2021/04/03 08:39:16;;;;;;;6.53;4.38;;;8.20;57.70;;;;;;5065704;28;20118;-63
2021/04/03 08:41:44;;;;;;;8.27;4.20;;;8.30;56.60;;;;;;5065154;28;20032;-63
2021/04/03 08:44:17;;;;;;;6.97;3.90;;;8.30;57.20;;;;;;5064400;28;20594;-63
2021/04/03 08:46:46;;;;;;;5.10;3.80;;;8.30;57.10;;;;;;5061542;28;20044;-63
2021/04/03 08:49:21;;;;;;;5.28;3.47;;;8.40;57.20;;;;;;5078615;28;20115;-63
2021/04/03 08:51:52;;;;;;;7.00;3.47;;;8.50;56.40;;;;;;5062435;28;20039;-63
2021/04/03 08:54:18;;;;;;;6.53;3.20;;;8.50;56.40;;;;;;5066353;28;20055;-63
2021/04/03 08:56:45;;;;;;;7.15;3.05;;;8.60;55.70;;;;;;5064368;28;20037;-63
2021/04/03 08:59:20;;;;;;;5.57;2.90;;;8.50;55.20;;;;;;5065496;28;20040;-63
2021/04/03 09:01:48;;;;;;;3.67;2.60;;;8.60;55.30;;;;;;5064728;28;20036;-63
2021/04/03 09:04:20;;;;;;;4.55;2.40;;;8.60;55.00;;;;;;5087307;28;20040;-63
2021/04/03 09:06:57;;;;;;;3.53;2.55;;;8.60;55.00;;;;;;5080561;28;20061;-63
2021/04/03 09:09:28;;;;;;;4.30;2.50;;;8.70;54.70;;;;;;5079781;28;20032;-63
2021/04/03 09:11:59;;;;;;;3.63;2.60;;;8.70;54.90;;;;;;5062618;28;20040;-63
2021/04/03 09:14:36;;;;;;;3.33;2.42;;;8.80;54.70;;;;;;5066680;28;20039;-63
2021/04/03 09:17:17;;;;;;;3.13;2.60;;;8.80;54.30;;;;;;5067784;28;20093;-62
2021/04/03 09:19:45;;;;;;;4.13;2.72;;;8.90;54.00;;;;;;5083532;28;20037;-63
2021/04/03 09:22:19;;;;;;;3.67;2.83;;;8.90;54.20;;;;;;5058662;28;20036;-63
2021/04/03 09:24:56;;;;;;;3.38;3.08;;;8.90;53.50;;;;;;5063463;28;20036;-63
2021/04/03 09:27:30;;;;;;;6.13;3.10;;;8.90;52.90;;;;;;5061622;28;20163;-63
2021/04/03 09:30:05;;;;;;;7.10;2.90;;;8.90;53.50;;;;;;5062264;28;20899;-63
2021/04/03 09:32:48;;;;;;;4.38;2.92;;;8.90;53.70;;;;;;5065749;28;20050;-63
2021/04/03 09:35:21;;;;;;;3.90;2.90;;;8.90;53.30;;;;;;5061985;28;20043;-63
2021/04/03 09:38:06;;;;;;;6.07;2.58;;;8.90;53.50;;;;;;5064671;28;20059;-63
2021/04/03 09:40:52;;;;;;;3.38;3.08;;;8.90;53.60;;;;;;5059469;28;20528;-62
2021/04/03 09:43:20;;;;;;;4.35;3.25;;;8.80;53.60;;;;;;5060518;28;20040;-63
2021/04/03 09:45:50;;;;;;;6.68;3.17;;;8.80;54.00;;;;;;5062504;28;20040;-63
2021/04/03 09:48:18;;;;;;;4.28;3.00;;;8.80;53.20;;;;;;5064541;28;20034;-62
2021/04/03 09:50:44;;;;;;;5.10;3.55;;;8.80;53.80;;;;;;5060237;28;20516;-63
2021/04/03 09:53:14;;;;;;;5.70;3.42;;;8.70;53.70;;;;;;5065748;28;20040;-62
2021/04/03 09:55:40;;;;;;;9.55;3.53;;;8.70;54.00;;;;;;5062085;28;20039;-63
2021/04/03 09:58:08;;;;;;;6.78;3.30;;;8.70;53.90;;;;;;5060400;28;20037;-63
2021/04/03 10:00:36;;;;;;;6.60;3.70;;;8.70;54.20;;;;;;5067368;28;20140;-63
2021/04/03 10:03:03;;;;;;;5.88;3.65;;;8.70;53.60;;;;;;5060660;28;20145;-63
2021/04/03 10:05:31;;;;;;;9.82;3.25;;;8.70;53.30;;;;;;5059309;28;20761;-63
2021/04/03 10:07:59;;;;;;;6.10;3.13;;;8.60;53.90;;;;;;5061653;28;20047;-63
2021/04/03 10:10:25;;;;;;;6.72;3.25;;;8.60;54.00;;;;;;5062831;28;20036;-64
2021/04/03 10:12:53;;;;;;;9.20;3.60;;;8.60;54.00;;;;;;5061760;28;20056;-63
2021/04/03 10:15:21;;;;;;;7.18;3.38;;;8.60;54.50;;;;;;5062860;28;20544;-63
2021/04/03 10:17:47;;;;;;;6.60;3.10;;;8.50;54.60;;;;;;5080537;28;20123;-63
2021/04/03 10:20:15;;;;;;;6.32;3.42;;;8.50;54.80;;;;;;5084418;28;20133;-63
2021/04/03 10:22:46;;;;;;;5.63;3.08;;;8.50;54.90;;;;;;5081235;28;20147;-63
2021/04/03 10:25:14;;;;;;;4.70;3.17;;;8.50;55.00;;;;;;5083195;28;20025;-63
2021/04/03 10:27:44;;;;;;;7.88;3.50;;;8.60;54.90;;;;;;5086401;28;20519;-63
2021/04/03 10:30:13;;;;;;;4.22;3.03;;;8.60;54.40;;;;;;5083103;28;20484;-63
2021/04/03 10:32:41;;;;;;;7.55;3.20;;;8.60;54.60;;;;;;5084327;28;20024;-63
2021/04/03 10:35:07;;;;;;;4.95;3.13;;;8.70;54.70;;;;;;5079362;28;20143;-63
2021/04/03 10:37:33;;;;;;;4.32;3.08;;;8.70;54.30;;;;;;5081150;28;20036;-63
2021/04/03 10:40:03;;;;;;;8.43;3.00;;;8.70;54.60;;;;;;5083838;28;20032;-63
2021/04/03 10:42:29;;;;;;;4.40;2.97;;;8.70;54.40;;;;;;5085707;28;20041;-63
2021/04/03 10:44:57;;;;;;;4.78;2.60;;;8.80;54.60;;;;;;5085594;28;20279;-63
2021/04/03 10:47:27;;;;;;;3.13;2.78;;;8.80;54.40;;;;;;5083402;28;20492;-63
2021/04/03 10:49:55;;;;;;;6.00;2.88;;;8.90;54.60;;;;;;5085719;28;20032;-63
2021/04/03 10:52:21;;;;;;;4.95;2.80;;;8.90;54.40;;;;;;5088784;28;20036;-63
2021/04/03 10:54:52;;;;;;;6.50;3.15;;;9.00;54.40;;;;;;5086114;28;20040;-63
2021/04/03 10:57:22;;;;;;;6.03;3.00;;;9.10;54.50;;;;;;5086681;28;20028;-63
2021/04/03 10:59:51;;;;;;;4.05;2.85;;;9.20;54.50;;;;;;5080607;28;20028;-63
2021/04/03 11:02:19;;;;;;;3.70;2.85;;;9.30;54.30;;;;;;5080662;28;20037;-63
2021/04/03 11:04:49;;;;;;;4.78;3.17;;;9.40;53.60;;;;;;5072805;28;20492;-63
2021/04/03 11:07:18;;;;;;;3.85;3.00;;;9.60;52.60;;;;;;5062764;28;20040;-62
2021/04/03 11:09:48;;;;;;;4.15;2.92;;;9.60;53.00;;;;;;5066284;28;20038;-63
2021/04/03 11:12:16;;;;;;;4.93;2.85;;;9.70;52.70;;;;;;5066502;28;20028;-64
2021/04/03 11:14:42;;;;;;;6.68;3.05;;;9.70;51.50;;;;;;5064993;28;20047;-62
2021/04/03 11:17:08;;;;;;;6.70;3.03;;;9.70;52.00;;;;;;5065334;28;20036;-63
2021/04/03 11:19:39;;;;;;;4.55;3.08;;;9.70;52.20;;;;;;5060192;28;20035;-63
2021/04/03 11:22:07;;;;;;;3.65;2.75;;;9.70;52.20;;;;;;5074774;28;20205;-63
2021/04/03 11:24:34;;;;;;;5.40;2.65;;;9.70;52.50;;;;;;5085017;28;20032;-61
2021/04/03 11:27:00;;;;;;;7.85;2.80;;;9.70;52.50;;;;;;5064516;28;20036;-63
2021/04/03 11:29:29;;;;;;;5.72;3.63;;;9.70;52.40;;;;;;5064023;28;20322;-63
2021/04/03 11:31:57;;;;;;;4.18;2.75;;;9.70;51.60;;;;;;5069953;28;20028;-63
2021/04/03 11:34:25;;;;;;;4.45;2.70;;;9.70;52.00;;;;;;5073569;28;20040;-63
2021/04/03 11:36:53;;;;;;;7.82;2.70;;;9.70;52.00;;;;;;5084329;28;20065;-63
2021/04/03 11:39:21;;;;;;;5.15;2.88;;;9.70;52.00;;;;;;5087652;28;20373;-63
2021/04/03 11:41:51;;;;;;;4.00;2.63;;;9.70;52.20;;;;;;5079874;28;20024;-63
2021/04/03 11:44:17;;;;;;;6.60;2.97;;;9.70;52.00;;;;;;5076090;28;20591;-63
2021/04/03 11:46:47;;;;;;;9.25;3.17;;;9.80;52.50;;;;;;5074996;28;20051;-63
2021/04/03 11:49:13;;;;;;;3.90;2.70;;;9.80;52.30;;;;;;5075328;28;20123;-63
2021/04/03 11:51:45;;;;;;;5.07;2.53;;;9.90;52.00;;;;;;5072270;28;20510;-63
2021/04/03 11:54:14;;;;;;;9.55;4.60;;;10.00;51.60;;;;;;5076058;28;20037;-63
2021/04/03 11:56:42;;;;;;;4.53;2.70;;;10.00;51.90;;;;;;5074387;28;20424;-64
2021/04/03 11:59:07;;;;;;;3.35;2.05;;;10.10;51.80;;;;;;5088234;28;20048;-63
2021/04/03 12:01:37;;;;;;;4.55;2.60;;;10.20;51.60;;;;;;5086587;28;20491;-63
2021/04/03 12:04:03;;;;;;;3.17;2.50;;;10.30;51.30;;;;;;5086555;28;20040;-63
2021/04/03 12:06:29;;;;;;;5.50;2.70;;;10.30;51.20;;;;;;5081824;28;20051;-63
2021/04/03 12:08:59;;;;;;;3.97;2.47;;;10.40;51.10;;;;;;5084778;28;20119;-63
2021/04/03 12:11:25;;;;;;;2.97;2.55;;;10.50;51.00;;;;;;5073190;28;20067;-63
2021/04/03 12:13:53;;;;;;;4.15;3.03;;;10.60;50.90;;;;;;5085756;28;20067;-63
2021/04/03 12:16:18;;;;;;;4.55;2.60;;;10.70;48.80;;;;;;5076130;28;20850;-63
2021/04/03 12:18:50;;;;;;;4.28;2.42;;;10.70;49.40;;;;;;5079230;28;20113;-63
2021/04/03 12:21:18;;;;;;;5.05;3.38;;;10.70;49.60;;;;;;5076362;28;20078;-63
2021/04/03 12:23:46;;;;;;;4.20;2.90;;;10.60;48.00;;;;;;5074358;28;20032;-63
2021/04/03 12:26:11;;;;;;;4.47;2.40;;;10.60;48.70;;;;;;5074454;28;20028;-63
2021/04/03 12:28:37;;;;;;;3.80;2.50;;;10.50;48.90;;;;;;5082610;28;20039;-63
2021/04/03 12:31:03;;;;;;;5.18;2.58;;;10.50;49.00;;;;;;5074013;28;20124;-63
2021/04/03 12:33:33;;;;;;;3.35;2.50;;;10.40;49.30;;;;;;5076040;28;20068;-63
2021/04/03 12:36:06;;;;;;;3.60;2.30;;;10.40;49.40;;;;;;5081113;28;20028;-63
2021/04/03 12:38:32;;;;;;;4.47;2.30;;;10.40;49.40;;;;;;5080561;28;20502;-63
2021/04/03 12:41:00;;;;;;;8.75;2.67;;;10.40;49.60;;;;;;5085655;28;20530;-63
2021/04/03 12:43:28;;;;;;;4.78;2.30;;;10.40;49.70;;;;;;5084439;28;20036;-63
2021/04/03 12:45:56;;;;;;;4.55;2.50;;;10.40;49.50;;;;;;5085616;28;20044;-63
2021/04/03 12:48:26;;;;;;;4.80;2.75;;;10.40;49.60;;;;;;5075722;28;20519;-64
2021/04/03 12:50:52;;;;;;;2.80;2.03;;;10.40;49.30;;;;;;5084076;28;20044;-63
2021/04/03 12:53:17;;;;;;;3.50;2.35;;;10.50;49.60;;;;;;5083175;28;20039;-63
2021/04/03 12:55:43;;;;;;;3.78;2.22;;;10.50;49.80;;;;;;5080317;28;20040;-63
2021/04/03 12:58:14;;;;;;;3.67;2.05;;;10.60;49.70;;;;;;5084175;28;20085;-63
2021/04/03 13:00:40;;;;;;;3.17;2.13;;;10.60;49.00;;;;;;5083361;28;20032;-63
2021/04/03 13:03:08;;;;;;;4.78;2.17;;;10.60;48.80;;;;;;5099954;28;20032;-62
2021/04/03 13:05:34;;;;;;;3.33;2.10;;;10.60;49.00;;;;;;5084014;28;20500;-64
2021/04/03 13:08:02;;;;;;;4.97;2.05;;;10.60;49.20;;;;;;5099085;28;20047;-63